Terminal Aerodrome Forecast
Issued by NWS Twin Cities, MN

Home | Current Version | Previous Version | Text Only | Print | Product List | Glossary On
Versions: 1 2 3 4 5 6 7 8 9 10 11 12 13 14 15
000
FTUS43 KMPX 260600 CCA
TAFEAU
TAF COR
KEAU 260604Z 2606/2706 18005KT 6SM BR OVC015
      TEMPO 2606/2609 SCT025 OVC035
     FM260900 00000KT 3SM BR OVC018
      TEMPO 2609/2612 2SM BR BKN006
     FM261400 28004KT P6SM SCT020 SCT120
     FM261700 27007KT P6SM SCT035 BKN150=

USA.gov is the U.S. government's official web portal to all federal, state and local government web resources and services.